createdAt,value
2022-09-11T00:01:31.460Z,7.60
2022-09-11T00:04:00.556Z,7.44
2022-09-11T00:06:35.261Z,7.48
2022-09-11T00:09:05.190Z,7.47
2022-09-11T00:11:39.562Z,7.49
2022-09-11T00:14:06.990Z,7.46
2022-09-11T00:16:38.456Z,7.38
2022-09-11T00:19:08.196Z,7.42
2022-09-11T00:21:36.211Z,7.59
2022-09-11T00:24:04.324Z,7.54
2022-09-11T00:26:31.709Z,7.55
2022-09-11T00:29:01.699Z,7.52
2022-09-11T00:31:29.708Z,7.48
2022-09-11T00:33:57.508Z,7.46
2022-09-11T00:36:27.146Z,7.46
2022-09-11T00:38:56.079Z,7.37
2022-09-11T00:41:26.376Z,7.45
2022-09-11T00:43:58.348Z,7.42
2022-09-11T00:46:34.090Z,7.33
2022-09-11T00:49:06.584Z,7.35
2022-09-11T00:51:37.410Z,7.38
2022-09-11T00:54:06.126Z,7.44
2022-09-11T00:56:37.408Z,7.53
2022-09-11T00:59:06.028Z,7.50
2022-09-11T01:01:34.209Z,7.50
2022-09-11T01:04:03.693Z,7.64
2022-09-11T01:06:31.053Z,7.68
2022-09-11T01:08:58.047Z,7.66
2022-09-11T01:11:35.581Z,7.58
2022-09-11T01:14:12.298Z,7.43
2022-09-11T01:16:44.828Z,7.44
2022-09-11T01:19:26.721Z,7.37
2022-09-11T01:22:23.003Z,7.48
2022-09-11T01:24:58.866Z,7.61
2022-09-11T01:27:47.129Z,7.63
2022-09-11T01:30:16.228Z,7.45
2022-09-11T01:33:01.421Z,7.49
2022-09-11T01:35:42.236Z,7.46
2022-09-11T01:38:16.026Z,7.46
2022-09-11T01:40:51.750Z,7.54
2022-09-11T01:43:24.136Z,7.49
2022-09-11T01:45:53.649Z,7.49
2022-09-11T01:48:26.057Z,7.51
2022-09-11T01:50:57.145Z,7.50
2022-09-11T01:53:29.483Z,7.41
2022-09-11T01:56:05.194Z,7.51
2022-09-11T01:58:42.419Z,7.50
2022-09-11T02:01:15.835Z,7.54
2022-09-11T02:03:48.447Z,7.48
2022-09-11T02:06:21.592Z,7.38
2022-09-11T02:08:53.406Z,7.38
2022-09-11T02:11:22.403Z,7.39
2022-09-11T02:13:58.506Z,7.36
2022-09-11T02:16:42.164Z,7.10
2022-09-11T02:19:11.892Z,7.21
2022-09-11T02:21:40.419Z,7.25
2022-09-11T02:24:07.977Z,7.20
2022-09-11T02:26:39.133Z,7.18
2022-09-11T02:29:09.956Z,7.19
2022-09-11T02:31:37.515Z,7.25
2022-09-11T02:34:05.783Z,7.26
2022-09-11T02:36:52.750Z,7.19
2022-09-11T02:39:35.221Z,7.12
2022-09-11T02:42:22.443Z,7.09
2022-09-11T02:45:03.644Z,7.07
2022-09-11T02:47:43.187Z,7.12
2022-09-11T02:50:16.416Z,7.05
2022-09-11T02:52:52.389Z,7.04
2022-09-11T02:55:25.330Z,7.19
2022-09-11T02:57:58.687Z,7.17
2022-09-11T03:00:31.213Z,7.00
2022-09-11T03:02:58.755Z,7.07
2022-09-11T03:05:31.131Z,6.98
2022-09-11T03:08:00.496Z,6.82
2022-09-11T03:10:27.375Z,6.89
2022-09-11T03:12:54.485Z,6.85
2022-09-11T03:15:25.523Z,6.84
2022-09-11T03:17:54.907Z,6.87
2022-09-11T03:20:22.228Z,6.89
2022-09-11T03:22:49.043Z,6.89
2022-09-11T03:25:16.852Z,6.94
2022-09-11T03:27:43.932Z,6.85
2022-09-11T03:30:13.511Z,6.86
2022-09-11T03:32:40.272Z,6.87
2022-09-11T03:35:12.300Z,6.83
2022-09-11T03:37:39.095Z,6.71
2022-09-11T03:40:07.931Z,6.68
2022-09-11T03:42:34.795Z,6.81
2022-09-11T03:45:01.761Z,6.71
2022-09-11T03:47:28.886Z,6.67
2022-09-11T03:49:55.678Z,6.74
2022-09-11T03:52:24.405Z,6.66
2022-09-11T03:54:51.490Z,6.65
2022-09-11T03:57:20.557Z,6.70
2022-09-11T03:59:47.429Z,6.63
2022-09-11T04:02:14.460Z,6.47
2022-09-11T04:04:41.916Z,6.43
2022-09-11T04:07:09.955Z,6.42
2022-09-11T04:09:38.671Z,6.33
2022-09-11T04:12:06.909Z,6.23
2022-09-11T04:14:33.920Z,6.25
2022-09-11T04:17:05.008Z,6.24
2022-09-11T04:19:32.443Z,6.29
2022-09-11T04:21:59.671Z,6.34
2022-09-11T04:24:27.567Z,6.26
2022-09-11T04:27:00.887Z,6.20
2022-09-11T04:29:29.248Z,6.37
2022-09-11T04:31:56.040Z,6.22
2022-09-11T04:34:23.492Z,6.17
2022-09-11T04:36:51.133Z,6.13
2022-09-11T04:39:20.291Z,6.08
2022-09-11T04:41:47.262Z,6.06
2022-09-11T04:44:17.373Z,6.15
2022-09-11T04:46:45.353Z,6.16
2022-09-11T04:49:12.682Z,6.26
2022-09-11T04:51:41.119Z,6.23
2022-09-11T04:54:11.580Z,6.10
2022-09-11T04:56:38.403Z,6.10
2022-09-11T04:59:10.379Z,6.09
2022-09-11T05:01:39.815Z,6.00
2022-09-11T05:04:12.043Z,5.82
2022-09-11T05:06:50.765Z,5.91
2022-09-11T05:09:20.779Z,6.08
2022-09-11T05:11:47.854Z,6.14
2022-09-11T05:14:15.143Z,6.24
2022-09-11T05:16:43.393Z,6.19
2022-09-11T05:19:12.575Z,6.21
2022-09-11T05:21:41.668Z,6.11
2022-09-11T05:24:08.835Z,6.18
2022-09-11T05:26:38.205Z,6.38
2022-09-11T05:29:07.112Z,6.48
2022-09-11T05:31:35.469Z,6.55
2022-09-11T05:34:07.836Z,6.54
2022-09-11T05:36:35.694Z,6.66
2022-09-11T05:39:03.343Z,6.71
2022-09-11T05:41:30.432Z,6.67
2022-09-11T05:43:58.731Z,6.71
2022-09-11T05:46:26.946Z,6.73
2022-09-11T05:48:53.966Z,6.70
2022-09-11T05:51:22.690Z,6.73
2022-09-11T05:53:52.649Z,6.72
2022-09-11T05:56:23.941Z,6.82
2022-09-11T05:58:55.835Z,6.79
2022-09-11T06:01:26.486Z,6.77
2022-09-11T06:03:53.708Z,6.82
2022-09-11T06:06:23.567Z,7.06
2022-09-11T06:08:51.568Z,7.73
2022-09-11T06:11:19.842Z,8.28
2022-09-11T06:13:53.743Z,8.48
2022-09-11T06:16:22.389Z,8.80
2022-09-11T06:18:50.694Z,8.60
2022-09-11T06:21:22.035Z,8.92
2022-09-11T06:23:55.758Z,9.50
2022-09-11T06:26:26.110Z,9.95
2022-09-11T06:28:54.706Z,10.44
2022-09-11T06:31:23.873Z,10.63
2022-09-11T06:33:53.571Z,11.04
2022-09-11T06:36:22.107Z,11.30
2022-09-11T06:38:54.640Z,11.31
2022-09-11T06:41:24.307Z,11.56
2022-09-11T06:43:52.594Z,11.74
2022-09-11T06:46:21.663Z,11.58
2022-09-11T06:48:52.606Z,11.21
2022-09-11T06:51:21.586Z,11.45
2022-09-11T06:53:53.421Z,11.81
2022-09-11T06:56:22.063Z,12.14
2022-09-11T06:58:49.168Z,12.47
2022-09-11T07:01:19.828Z,12.75
2022-09-11T07:03:48.520Z,13.08
2022-09-11T07:06:19.550Z,13.00
2022-09-11T07:08:50.802Z,12.71
2022-09-11T07:11:18.677Z,12.59
2022-09-11T07:13:47.926Z,12.22
2022-09-11T07:16:16.920Z,12.42
2022-09-11T07:18:46.730Z,12.14
2022-09-11T07:21:17.201Z,12.26
2022-09-11T07:23:49.579Z,12.35
2022-09-11T07:26:18.968Z,12.52
2022-09-11T07:28:47.168Z,12.96
2022-09-11T07:31:20.922Z,13.36
2022-09-11T07:33:49.750Z,13.08
2022-09-11T07:36:20.288Z,13.38
2022-09-11T07:38:48.647Z,13.81
2022-09-11T07:41:24.840Z,14.17
2022-09-11T07:43:58.902Z,14.43
2022-09-11T07:46:27.963Z,14.72
2022-09-11T07:48:55.395Z,15.04
2022-09-11T07:51:25.297Z,15.19
2022-09-11T07:53:57.336Z,15.44
2022-09-11T07:56:26.019Z,15.86
2022-09-11T07:58:55.325Z,15.99
2022-09-11T08:01:26.516Z,16.14
2022-09-11T08:03:54.794Z,16.32
2022-09-11T08:06:26.958Z,16.36
2022-09-11T08:08:55.683Z,16.44
2022-09-11T08:11:30.510Z,16.11
2022-09-11T08:13:58.670Z,15.99
2022-09-11T08:16:27.115Z,15.71
2022-09-11T08:18:55.065Z,15.25
2022-09-11T08:21:23.301Z,14.49
2022-09-11T08:23:50.912Z,14.26
2022-09-11T08:26:22.419Z,14.10
2022-09-11T08:28:51.221Z,13.76
2022-09-11T08:31:22.509Z,13.67
2022-09-11T08:33:50.345Z,13.56
2022-09-11T08:36:17.718Z,13.72
2022-09-11T08:38:45.542Z,13.80
2022-09-11T08:41:30.035Z,13.75
2022-09-11T08:43:59.109Z,13.70
2022-09-11T08:46:35.560Z,13.78
2022-09-11T08:49:09.089Z,13.91
2022-09-11T08:51:38.857Z,14.39
2022-09-11T08:54:07.525Z,14.54
2022-09-11T08:56:38.185Z,15.04
2022-09-11T08:59:19.053Z,15.55
2022-09-11T09:02:00.050Z,16.12
2022-09-11T09:04:52.928Z,16.55
2022-09-11T09:07:25.464Z,16.93
2022-09-11T09:10:00.886Z,17.13
2022-09-11T09:12:38.854Z,17.26
2022-09-11T09:15:30.433Z,17.46
2022-09-11T09:18:07.634Z,17.70
2022-09-11T09:20:38.382Z,17.94
2022-09-11T09:23:13.711Z,18.07
2022-09-11T09:25:42.840Z,17.48
2022-09-11T09:28:20.858Z,17.81
2022-09-11T09:30:51.915Z,17.56
2022-09-11T09:33:34.284Z,17.62
2022-09-11T09:36:21.157Z,17.67
2022-09-11T09:38:48.926Z,17.62
2022-09-11T09:41:42.989Z,17.49
2022-09-11T09:44:20.413Z,17.40
2022-09-11T09:46:51.203Z,17.38
2022-09-11T09:49:27.313Z,17.37
2022-09-11T09:52:04.046Z,17.52
2022-09-11T09:54:38.172Z,17.48
2022-09-11T09:57:07.029Z,17.15
2022-09-11T09:59:41.735Z,17.32
2022-09-11T10:02:08.520Z,17.30
2022-09-11T10:04:46.169Z,17.66
2022-09-11T10:07:17.424Z,18.08
2022-09-11T10:09:49.265Z,18.51
2022-09-11T10:12:20.644Z,18.87
2022-09-11T10:14:53.227Z,18.88
2022-09-11T10:17:36.174Z,18.86
2022-09-11T10:20:24.100Z,19.13
2022-09-11T10:22:51.705Z,19.21
2022-09-11T10:25:21.615Z,19.26
2022-09-11T10:27:58.962Z,19.15
2022-09-11T10:30:33.394Z,19.08
2022-09-11T10:33:04.343Z,19.25
2022-09-11T10:35:35.280Z,19.49
2022-09-11T10:38:27.661Z,19.56
2022-09-11T10:41:06.673Z,19.58
2022-09-11T10:43:40.237Z,19.23
2022-09-11T10:46:24.922Z,19.34
2022-09-11T10:48:53.516Z,19.89
2022-09-11T10:51:27.838Z,20.33
2022-09-11T10:54:09.023Z,20.53
2022-09-11T10:56:45.481Z,20.60
2022-09-11T10:59:22.581Z,20.65
2022-09-11T11:01:49.799Z,20.79
2022-09-11T11:04:17.053Z,21.07
2022-09-11T11:07:00.702Z,20.51
2022-09-11T11:09:40.847Z,20.86
2022-09-11T11:12:24.104Z,20.76
2022-09-11T11:15:36.442Z,20.12
2022-09-11T11:18:22.892Z,19.87
2022-09-11T11:20:56.585Z,19.88
2022-09-11T11:23:43.388Z,20.12
2022-09-11T11:26:34.582Z,20.03
2022-09-11T11:29:39.352Z,20.03
2022-09-11T11:32:31.571Z,20.28
2022-09-11T11:35:19.568Z,20.06
2022-09-11T11:37:53.967Z,20.64
2022-09-11T11:40:28.846Z,20.63
2022-09-11T11:43:02.875Z,20.74
2022-09-11T11:45:34.050Z,21.09
2022-09-11T11:48:08.819Z,21.28
2022-09-11T11:50:40.165Z,21.52
2022-09-11T11:53:19.501Z,21.02
2022-09-11T11:55:58.543Z,21.02
2022-09-11T11:58:44.699Z,20.75
2022-09-11T12:01:25.290Z,20.00
2022-09-11T12:03:59.457Z,19.85
2022-09-11T12:06:28.690Z,19.48
2022-09-11T12:08:57.340Z,19.67
2022-09-11T12:11:35.024Z,18.91
2022-09-11T12:14:02.327Z,19.07
2022-09-11T12:16:33.102Z,18.78
2022-09-11T12:19:06.423Z,18.70
2022-09-11T12:21:39.859Z,18.61
2022-09-11T12:24:16.830Z,18.71
2022-09-11T12:26:45.211Z,18.98
2022-09-11T12:29:53.145Z,19.48
2022-09-11T12:32:41.968Z,19.77
2022-09-11T12:35:24.341Z,19.90
2022-09-11T12:38:11.014Z,20.21
2022-09-11T12:40:45.967Z,20.67
2022-09-11T12:43:45.413Z,20.79
2022-09-11T12:46:33.375Z,20.62
2022-09-11T12:49:25.966Z,20.39
2022-09-11T12:51:56.543Z,20.08
2022-09-11T12:54:27.303Z,20.40
2022-09-11T12:57:02.805Z,20.39
2022-09-11T12:59:36.293Z,19.72
2022-09-11T13:02:05.362Z,19.67
2022-09-11T13:04:33.449Z,19.74
2022-09-11T13:07:06.727Z,19.65
2022-09-11T13:09:38.302Z,19.39
2022-09-11T13:12:42.265Z,18.87
2022-09-11T13:15:39.741Z,19.33
2022-09-11T13:18:23.758Z,19.33
2022-09-11T13:21:01.207Z,19.59
2022-09-11T13:23:29.028Z,19.65
2022-09-11T13:25:57.569Z,19.68
2022-09-11T13:28:27.440Z,19.90
2022-09-11T13:31:17.365Z,20.10
2022-09-11T13:33:49.097Z,20.25
2022-09-11T13:36:22.425Z,20.05
2022-09-11T13:38:53.971Z,20.29
2022-09-11T13:41:25.930Z,20.43
2022-09-11T13:43:58.294Z,20.51
2022-09-11T13:46:28.280Z,20.53
2022-09-11T13:48:59.269Z,20.14
2022-09-11T13:51:29.125Z,19.84
2022-09-11T13:54:01.254Z,19.69
2022-09-11T13:56:39.421Z,19.43
2022-09-11T13:59:35.901Z,19.11
2022-09-11T14:02:07.136Z,19.37
2022-09-11T14:04:42.325Z,19.30
2022-09-11T14:07:19.102Z,19.14
2022-09-11T14:09:48.870Z,19.11
2022-09-11T14:12:16.590Z,19.11
2022-09-11T14:14:48.811Z,18.92
2022-09-11T14:17:17.227Z,19.21
2022-09-11T14:19:45.442Z,19.01
2022-09-11T14:22:23.189Z,18.46
2022-09-11T14:24:55.947Z,17.93
2022-09-11T14:27:39.099Z,17.83
2022-09-11T14:30:37.225Z,17.68
2022-09-11T14:33:27.135Z,17.93
2022-09-11T14:36:10.467Z,17.68
2022-09-11T14:38:39.567Z,17.44
2022-09-11T14:41:07.987Z,17.26
2022-09-11T14:43:38.687Z,17.07
2022-09-11T14:46:09.889Z,17.04
2022-09-11T14:48:38.504Z,16.85
2022-09-11T14:51:08.779Z,16.51
2022-09-11T14:53:38.318Z,16.65
2022-09-11T14:56:05.583Z,16.59
2022-09-11T14:58:32.383Z,16.50
2022-09-11T15:01:00.425Z,16.48
2022-09-11T15:03:28.154Z,16.30
2022-09-11T15:05:59.547Z,16.29
2022-09-11T15:08:26.439Z,16.14
2022-09-11T15:10:54.067Z,15.68
2022-09-11T15:13:25.054Z,15.46
2022-09-11T15:15:53.338Z,15.36
2022-09-11T15:18:21.375Z,15.47
2022-09-11T15:20:48.414Z,15.56
2022-09-11T15:23:20.105Z,15.45
2022-09-11T15:25:47.080Z,15.50
2022-09-11T15:28:15.531Z,15.53
2022-09-11T15:30:45.590Z,15.48
2022-09-11T15:33:16.583Z,15.45
2022-09-11T15:35:46.488Z,15.45
2022-09-11T15:38:14.133Z,15.37
2022-09-11T15:40:42.267Z,15.25
2022-09-11T15:43:10.479Z,15.08
2022-09-11T15:45:42.976Z,15.00
2022-09-11T15:48:10.650Z,14.96
2022-09-11T15:50:37.420Z,14.99
2022-09-11T15:53:04.498Z,15.06
2022-09-11T15:55:32.152Z,15.18
2022-09-11T15:58:08.830Z,15.12
2022-09-11T16:00:35.696Z,15.33
2022-09-11T16:03:05.892Z,15.23
2022-09-11T16:05:39.396Z,15.26
2022-09-11T16:08:08.691Z,15.30
2022-09-11T16:10:38.374Z,15.23
2022-09-11T16:13:07.176Z,15.36
2022-09-11T16:15:34.403Z,15.37
2022-09-11T16:18:01.600Z,15.30
2022-09-11T16:20:30.072Z,15.24
2022-09-11T16:22:57.261Z,15.03
2022-09-11T16:25:29.413Z,15.06
2022-09-11T16:27:57.306Z,15.06
2022-09-11T16:30:45.051Z,14.83
2022-09-11T16:33:14.584Z,14.82
2022-09-11T16:35:41.959Z,14.84
2022-09-11T16:38:11.184Z,14.64
2022-09-11T16:40:37.926Z,14.57
2022-09-11T16:43:06.040Z,14.24
2022-09-11T16:45:39.141Z,13.90
2022-09-11T16:48:14.071Z,13.84
2022-09-11T16:50:41.843Z,13.43
2022-09-11T16:53:11.154Z,13.03
2022-09-11T16:55:39.816Z,13.02
2022-09-11T16:58:06.546Z,12.90
2022-09-11T17:00:43.340Z,13.06
2022-09-11T17:03:20.863Z,13.16
2022-09-11T17:05:50.426Z,12.79
2022-09-11T17:08:18.035Z,12.86
2022-09-11T17:10:46.248Z,12.76
2022-09-11T17:13:13.543Z,12.86
2022-09-11T17:15:45.508Z,12.81
2022-09-11T17:18:15.339Z,13.03
2022-09-11T17:20:43.964Z,12.60
2022-09-11T17:23:10.756Z,12.68
2022-09-11T17:25:42.878Z,12.40
2022-09-11T17:28:11.072Z,12.26
2022-09-11T17:30:39.423Z,11.79
2022-09-11T17:33:07.871Z,11.92
2022-09-11T17:35:34.732Z,11.99
2022-09-11T17:38:02.556Z,11.83
2022-09-11T17:40:31.774Z,11.87
2022-09-11T17:42:58.812Z,12.00
2022-09-11T17:45:29.307Z,11.88
2022-09-11T17:47:56.619Z,11.70
2022-09-11T17:50:37.732Z,11.79
2022-09-11T17:53:07.187Z,11.71
2022-09-11T17:55:37.504Z,11.44
2022-09-11T17:58:07.515Z,11.35
2022-09-11T18:00:36.034Z,11.32
2022-09-11T18:03:04.073Z,11.16
2022-09-11T18:05:33.528Z,10.95
2022-09-11T18:08:12.567Z,11.17
2022-09-11T18:10:41.967Z,11.07
2022-09-11T18:13:17.705Z,10.99
2022-09-11T18:15:47.206Z,10.86
2022-09-11T18:18:17.494Z,10.82
2022-09-11T18:20:47.282Z,10.69
2022-09-11T18:23:15.007Z,10.64
2022-09-11T18:25:45.466Z,10.53
2022-09-11T18:28:13.887Z,10.67
2022-09-11T18:30:43.330Z,10.55
2022-09-11T18:33:12.345Z,10.36
2022-09-11T18:35:41.625Z,10.45
2022-09-11T18:38:10.545Z,10.51
2022-09-11T18:40:42.093Z,10.60
2022-09-11T18:43:08.905Z,10.29
2022-09-11T18:45:38.854Z,10.13
2022-09-11T18:48:08.260Z,10.38
2022-09-11T18:50:38.588Z,10.26
2022-09-11T18:53:06.354Z,10.43
2022-09-11T18:55:44.268Z,10.72
2022-09-11T18:58:12.438Z,10.71
2022-09-11T19:00:46.291Z,10.55
2022-09-11T19:03:14.793Z,10.80
2022-09-11T19:05:45.119Z,10.50
2022-09-11T19:08:19.559Z,10.75
2022-09-11T19:10:48.559Z,10.90
2022-09-11T19:13:16.005Z,10.93
2022-09-11T19:15:43.173Z,10.70
2022-09-11T19:18:15.239Z,10.73
2022-09-11T19:20:45.022Z,10.40
2022-09-11T19:23:18.333Z,10.59
2022-09-11T19:25:48.801Z,9.91
2022-09-11T19:28:25.346Z,9.94
2022-09-11T19:30:57.219Z,10.27
2022-09-11T19:33:33.309Z,10.63
2022-09-11T19:36:03.287Z,10.37
2022-09-11T19:38:31.191Z,10.40
2022-09-11T19:41:00.283Z,10.50
2022-09-11T19:43:34.442Z,10.35
2022-09-11T19:46:11.663Z,10.32
2022-09-11T19:48:41.294Z,10.24
2022-09-11T19:51:11.404Z,9.96
2022-09-11T19:53:39.354Z,9.76
2022-09-11T19:56:08.383Z,9.64
2022-09-11T19:58:55.526Z,9.49
2022-09-11T20:01:27.278Z,9.49
2022-09-11T20:03:57.733Z,9.39
2022-09-11T20:06:33.536Z,9.36
2022-09-11T20:09:30.051Z,9.26
2022-09-11T20:11:50.248Z,9.17
2022-09-11T20:14:18.781Z,9.12
2022-09-11T20:16:50.369Z,8.98
2022-09-11T20:19:18.007Z,8.98
2022-09-11T20:21:45.282Z,8.94
2022-09-11T20:24:13.153Z,8.95
2022-09-11T20:26:40.203Z,9.03
2022-09-11T20:29:09.272Z,9.09
2022-09-11T20:31:46.291Z,9.13
2022-09-11T20:34:17.583Z,9.11
2022-09-11T20:36:47.361Z,9.09
2022-09-11T20:39:15.466Z,9.00
2022-09-11T20:41:46.895Z,8.95
2022-09-11T20:44:18.608Z,9.09
2022-09-11T20:46:54.335Z,9.13
2022-09-11T20:49:22.799Z,9.25
2022-09-11T20:51:56.568Z,9.03
2022-09-11T20:54:23.950Z,8.87
2022-09-11T20:56:51.059Z,9.03
2022-09-11T20:59:18.045Z,9.04
2022-09-11T21:01:55.747Z,9.12
2022-09-11T21:04:24.234Z,9.18
2022-09-11T21:06:55.418Z,8.93
2022-09-11T21:09:23.273Z,8.91
2022-09-11T21:11:54.484Z,8.91
2022-09-11T21:14:22.734Z,8.93
2022-09-11T21:16:51.770Z,8.84
2022-09-11T21:19:18.675Z,8.84
2022-09-11T21:21:47.166Z,8.75
2022-09-11T21:24:15.193Z,8.79
2022-09-11T21:26:42.833Z,8.85
2022-09-11T21:29:12.469Z,8.77
2022-09-11T21:31:41.583Z,8.67
2022-09-11T21:34:10.967Z,8.52
2022-09-11T21:36:41.169Z,8.43
2022-09-11T21:39:09.695Z,8.44
2022-09-11T21:41:39.056Z,8.64
2022-09-11T21:44:06.039Z,8.69
2022-09-11T21:46:33.172Z,8.56
2022-09-11T21:49:00.246Z,8.64
2022-09-11T21:51:27.638Z,8.43
2022-09-11T21:53:57.663Z,8.48
2022-09-11T21:59:01.778Z,8.56
2022-09-11T22:01:31.317Z,8.39
2022-09-11T22:03:59.550Z,8.38
2022-09-11T22:06:30.509Z,8.39
2022-09-11T22:09:08.306Z,8.42
2022-09-11T22:11:36.872Z,8.44
2022-09-11T22:14:05.123Z,8.27
2022-09-11T22:16:35.210Z,8.16
2022-09-11T22:19:03.373Z,8.02
2022-09-11T22:21:31.181Z,7.88
2022-09-11T22:23:58.570Z,8.01
2022-09-11T22:26:29.020Z,8.06
2022-09-11T22:29:01.023Z,8.27
2022-09-11T22:31:29.278Z,8.37
2022-09-11T22:33:56.223Z,8.37
2022-09-11T22:36:26.417Z,8.43
2022-09-11T22:38:56.078Z,8.32
2022-09-11T22:41:23.555Z,8.15
2022-09-11T22:43:50.694Z,7.95
2022-09-11T22:46:21.875Z,7.91
2022-09-11T22:48:51.380Z,7.75
2022-09-11T22:51:20.929Z,7.77
2022-09-11T22:53:48.165Z,7.79
2022-09-11T22:56:16.188Z,7.80
2022-09-11T22:58:43.484Z,7.89
2022-09-11T23:01:12.873Z,7.97
2022-09-11T23:03:42.738Z,7.98
2022-09-11T23:06:11.421Z,7.92
2022-09-11T23:08:43.350Z,7.90
2022-09-11T23:11:17.053Z,7.92
2022-09-11T23:13:45.123Z,8.07
2022-09-11T23:16:15.385Z,8.03
2022-09-11T23:18:45.582Z,7.96
2022-09-11T23:21:12.675Z,8.10
2022-09-11T23:23:41.080Z,8.08
2022-09-11T23:26:08.445Z,8.03
2022-09-11T23:28:36.619Z,8.08
2022-09-11T23:31:10.450Z,8.00
2022-09-11T23:33:39.859Z,8.08
2022-09-11T23:36:12.922Z,8.05
2022-09-11T23:38:40.203Z,8.02
2022-09-11T23:41:09.849Z,7.82
2022-09-11T23:43:36.626Z,7.96
2022-09-11T23:46:05.218Z,7.82
2022-09-11T23:48:32.867Z,7.88
2022-09-11T23:51:03.863Z,7.97
2022-09-11T23:53:32.444Z,8.08
2022-09-11T23:56:02.523Z,8.12
2022-09-11T23:58:29.985Z,8.09
